Time;durP1;ratioP1;P1;durP2;ratioP2;P2;SDS_P1;SDS_P2;PMS_P1;PMS_P2;Temp;Humidity;BMP_temperature;BMP_pressure;BME280_temperature;BME280_humidity;BME280_pressure;Samples;Min_cycle;Max_cycle;Signal;HPM_P1;HPM_P2
2023/07/07 00:01:28;;;;;;;9.25;5.32;;;17.60;99.90;;;;;;5079005;28;20043;-69
2023/07/07 00:03:53;;;;;;;8.77;5.10;;;17.60;99.90;;;;;;5082025;28;20077;-70
2023/07/07 00:06:21;;;;;;;6.18;4.60;;;17.50;99.90;;;;;;5082036;28;20034;-70
2023/07/07 00:08:47;;;;;;;5.70;4.65;;;17.50;99.90;;;;;;5080870;28;20039;-69
2023/07/07 00:11:13;;;;;;;5.90;5.10;;;17.50;99.90;;;;;;5082957;28;20032;-69
2023/07/07 00:13:38;;;;;;;5.80;4.55;;;17.50;99.90;;;;;;5083799;28;20472;-69
2023/07/07 00:16:04;;;;;;;6.90;4.32;;;17.50;99.90;;;;;;5089400;28;20111;-69
2023/07/07 00:18:30;;;;;;;9.27;4.45;;;17.50;99.90;;;;;;5082071;28;20028;-69
2023/07/07 00:20:58;;;;;;;6.50;4.00;;;17.50;99.90;;;;;;5084346;28;20066;-69
2023/07/07 00:23:25;;;;;;;5.00;4.50;;;17.40;99.90;;;;;;5082990;28;20025;-70
2023/07/07 00:26:05;;;;;;;6.55;4.18;;;17.40;99.90;;;;;;5082862;28;20473;-69
2023/07/07 00:28:32;;;;;;;6.97;4.70;;;17.40;99.90;;;;;;5086895;28;20500;-69
2023/07/07 00:30:58;;;;;;;5.45;4.50;;;17.40;99.90;;;;;;5077408;28;20123;-69
2023/07/07 00:33:24;;;;;;;9.05;4.72;;;17.30;99.90;;;;;;5083265;28;20119;-69
2023/07/07 00:35:51;;;;;;;9.38;5.03;;;17.30;99.90;;;;;;5079308;28;20024;-69
2023/07/07 00:38:17;;;;;;;5.93;4.95;;;17.30;99.90;;;;;;5081812;28;20495;-69
2023/07/07 00:40:43;;;;;;;11.23;5.50;;;17.20;99.90;;;;;;5084326;28;20032;-69
2023/07/07 00:43:17;;;;;;;9.15;4.82;;;17.20;99.90;;;;;;5085249;28;20020;-69
2023/07/07 00:45:44;;;;;;;6.90;5.05;;;17.30;99.90;;;;;;5080610;28;20024;-69
2023/07/07 00:48:16;;;;;;;8.00;4.68;;;17.20;99.90;;;;;;5079223;28;20048;-69
2023/07/07 00:50:45;;;;;;;;;;;17.20;99.90;;;;;;5077377;28;20512;-69
2023/07/07 00:53:12;;;;;;;8.05;5.28;;;17.20;99.90;;;;;;5081199;28;19905;-69
2023/07/07 00:55:45;;;;;;;7.20;5.20;;;17.20;99.90;;;;;;5083859;28;20029;-69
2023/07/07 00:58:14;;;;;;;5.03;4.57;;;17.20;99.90;;;;;;5078446;28;20051;-69
2023/07/07 01:00:50;;;;;;;5.57;4.90;;;17.20;99.90;;;;;;5082161;28;20063;-69
2023/07/07 01:03:26;;;;;;;8.98;4.80;;;17.10;99.90;;;;;;5081758;28;20029;-69
2023/07/07 01:05:56;;;;;;;6.95;4.53;;;17.10;99.90;;;;;;5072758;28;20059;-69
2023/07/07 01:08:22;;;;;;;6.38;4.25;;;17.00;99.90;;;;;;5081406;28;20020;-69
2023/07/07 01:10:48;;;;;;;5.78;4.93;;;17.00;99.90;;;;;;5083365;28;20027;-69
2023/07/07 01:13:14;;;;;;;6.22;5.50;;;17.00;99.90;;;;;;5086302;28;20032;-68
2023/07/07 01:16:02;;;;;;;5.50;4.85;;;17.00;99.90;;;;;;5086881;28;20028;-69
2023/07/07 01:19:21;;;;;;;6.47;5.40;;;16.90;99.90;;;;;;5083727;28;20098;-69
2023/07/07 01:22:02;;;;;;;7.07;5.20;;;16.90;99.90;;;;;;5023569;28;20510;-69
2023/07/07 01:24:31;;;;;;;8.77;6.95;;;16.90;99.90;;;;;;5079699;28;20040;-69
2023/07/07 01:27:42;;;;;;;10.52;6.78;;;16.90;99.90;;;;;;5083783;28;20197;-69
2023/07/07 01:30:38;;;;;;;9.80;5.60;;;16.80;99.90;;;;;;5081203;28;20127;-69
2023/07/07 01:33:09;;;;;;;9.98;6.65;;;16.80;99.90;;;;;;5079894;28;20043;-69
2023/07/07 01:35:34;;;;;;;10.57;6.60;;;16.80;99.90;;;;;;5079488;28;20024;-69
2023/07/07 01:38:01;;;;;;;11.52;6.57;;;16.80;99.90;;;;;;5079424;28;20055;-69
2023/07/07 01:40:45;;;;;;;8.98;6.93;;;16.70;99.90;;;;;;5081158;28;20040;-69
2023/07/07 01:43:21;;;;;;;10.98;7.03;;;16.70;99.90;;;;;;5079785;28;20477;-69
2023/07/07 01:46:04;;;;;;;7.90;6.78;;;16.70;99.90;;;;;;5082207;28;20576;-69
2023/07/07 01:48:41;;;;;;;11.77;6.40;;;16.70;99.90;;;;;;5080711;28;20036;-69
2023/07/07 01:51:10;;;;;;;9.07;6.65;;;16.70;99.90;;;;;;5084741;28;20119;-69
2023/07/07 01:53:39;;;;;;;7.72;5.65;;;16.70;99.90;;;;;;5083342;28;20162;-69
2023/07/07 01:56:07;;;;;;;8.48;5.93;;;16.60;99.90;;;;;;5084850;28;20028;-69
2023/07/07 01:58:34;;;;;;;8.95;6.25;;;16.60;99.90;;;;;;5085112;28;20064;-69
2023/07/07 02:01:01;;;;;;;8.27;6.13;;;16.60;99.90;;;;;;5094024;28;20384;-70
2023/07/07 02:03:27;;;;;;;7.43;6.18;;;16.60;99.90;;;;;;5078384;28;20029;-69
2023/07/07 02:05:53;;;;;;;9.52;6.25;;;16.50;99.90;;;;;;5081505;28;20038;-69
2023/07/07 02:08:18;;;;;;;7.68;5.88;;;16.50;99.90;;;;;;5080669;28;20380;-69
2023/07/07 02:10:44;;;;;;;10.45;6.50;;;16.50;99.90;;;;;;5080879;28;20036;-69
2023/07/07 02:13:10;;;;;;;7.50;6.80;;;16.40;99.90;;;;;;5079803;28;20029;-69
2023/07/07 02:15:36;;;;;;;9.75;6.10;;;16.40;99.90;;;;;;5084285;28;20060;-69
2023/07/07 02:18:02;;;;;;;8.10;6.15;;;16.40;99.90;;;;;;5092789;28;20024;-69
2023/07/07 02:20:28;;;;;;;6.20;5.25;;;16.30;99.90;;;;;;5090564;28;20122;-69
2023/07/07 02:22:53;;;;;;;8.27;5.20;;;16.40;99.90;;;;;;5087538;28;20567;-69
2023/07/07 02:25:19;;;;;;;9.50;6.15;;;16.30;99.90;;;;;;5081747;28;20035;-69
2023/07/07 02:27:45;;;;;;;7.38;6.07;;;16.30;99.90;;;;;;5082079;28;20357;-69
2023/07/07 02:30:11;;;;;;;8.52;4.88;;;16.30;99.90;;;;;;5082416;28;20438;-69
2023/07/07 02:32:36;;;;;;;7.63;5.20;;;16.20;99.90;;;;;;5089270;28;20713;-69
2023/07/07 02:35:04;;;;;;;6.60;5.22;;;16.20;99.90;;;;;;5092212;28;20020;-69
2023/07/07 02:37:29;;;;;;;6.32;5.72;;;16.10;99.90;;;;;;5090586;28;20408;-69
2023/07/07 02:39:55;;;;;;;8.68;6.05;;;16.10;99.90;;;;;;5083903;28;20035;-69
2023/07/07 02:42:21;;;;;;;7.60;5.55;;;16.10;99.90;;;;;;5083936;28;20032;-69
2023/07/07 02:44:47;;;;;;;7.93;6.18;;;16.10;99.90;;;;;;5085603;28;20028;-69
2023/07/07 02:47:13;;;;;;;6.38;5.78;;;16.10;99.90;;;;;;5080038;28;20044;-69
2023/07/07 02:49:39;;;;;;;9.23;6.28;;;16.00;99.90;;;;;;5083091;28;20396;-69
2023/07/07 02:52:05;;;;;;;8.45;5.90;;;16.00;99.90;;;;;;5086438;28;20017;-69
2023/07/07 02:54:31;;;;;;;8.32;6.93;;;16.00;99.90;;;;;;5085350;28;20020;-69
2023/07/07 02:56:57;;;;;;;8.85;6.70;;;16.00;99.90;;;;;;5092485;28;20063;-69
2023/07/07 02:59:22;;;;;;;9.20;8.05;;;16.00;99.90;;;;;;5088041;28;20032;-69
2023/07/07 03:01:49;;;;;;;8.77;6.38;;;15.80;99.90;;;;;;5087061;28;20400;-69
2023/07/07 03:04:14;;;;;;;9.80;6.25;;;15.70;99.90;;;;;;5087127;28;20028;-69
2023/07/07 03:06:40;;;;;;;9.02;6.03;;;15.70;99.90;;;;;;5090781;28;20438;-69
2023/07/07 03:09:07;;;;;;;9.70;6.50;;;15.70;99.90;;;;;;5083557;28;20051;-69
2023/07/07 03:11:33;;;;;;;6.82;5.50;;;15.70;99.90;;;;;;5091493;28;20024;-69
2023/07/07 03:13:59;;;;;;;10.52;6.40;;;15.70;99.90;;;;;;5086794;28;20025;-68
2023/07/07 03:16:30;;;;;;;8.43;6.72;;;15.70;99.90;;;;;;5089621;28;20034;-69
2023/07/07 03:19:00;;;;;;;7.07;5.78;;;15.70;99.90;;;;;;5083657;28;20028;-69
2023/07/07 03:21:26;;;;;;;10.95;7.40;;;15.70;99.90;;;;;;5083414;28;20427;-69
2023/07/07 03:23:53;;;;;;;7.97;7.22;;;15.50;99.90;;;;;;5081327;28;20031;-69
2023/07/07 03:26:21;;;;;;;7.57;6.70;;;15.40;99.90;;;;;;5079232;28;20050;-69
2023/07/07 03:28:47;;;;;;;9.75;5.78;;;15.40;99.90;;;;;;5081400;28;20063;-69
2023/07/07 03:31:14;;;;;;;9.13;5.47;;;15.50;99.90;;;;;;5081132;28;20093;-69
2023/07/07 03:33:42;;;;;;;7.05;6.35;;;15.50;99.90;;;;;;5081554;28;20086;-69
2023/07/07 03:36:10;;;;;;;8.27;5.70;;;15.50;99.90;;;;;;5078362;28;20093;-69
2023/07/07 03:38:37;;;;;;;6.28;5.60;;;15.40;99.90;;;;;;5089266;28;20052;-68
2023/07/07 03:41:02;;;;;;;6.40;5.45;;;15.40;99.90;;;;;;5079392;28;20430;-68
2023/07/07 03:43:28;;;;;;;6.63;4.93;;;15.40;99.90;;;;;;5087896;28;20578;-69
2023/07/07 03:45:55;;;;;;;6.90;5.47;;;15.40;99.90;;;;;;5080914;28;20021;-68
2023/07/07 03:48:20;;;;;;;6.93;5.43;;;15.40;99.90;;;;;;5086160;28;20114;-69
2023/07/07 03:50:56;;;;;;;6.45;5.65;;;15.40;99.90;;;;;;5086769;28;20146;-68
2023/07/07 03:53:22;;;;;;;7.93;5.78;;;15.40;99.90;;;;;;5085259;28;20049;-69
2023/07/07 03:55:47;;;;;;;6.68;5.93;;;15.40;99.90;;;;;;5081877;28;20028;-69
2023/07/07 03:58:13;;;;;;;8.07;5.63;;;15.30;99.90;;;;;;5082294;28;20048;-69
2023/07/07 04:00:39;;;;;;;8.80;6.45;;;15.20;99.90;;;;;;5080338;28;20494;-68
2023/07/07 04:03:04;;;;;;;7.82;5.45;;;15.30;99.90;;;;;;5082469;28;20515;-69
2023/07/07 04:05:30;;;;;;;7.45;6.20;;;15.30;99.90;;;;;;5084256;28;20038;-68
2023/07/07 04:07:55;;;;;;;7.35;5.82;;;15.20;99.90;;;;;;5082414;28;20095;-68
2023/07/07 04:10:21;;;;;;;7.82;6.20;;;15.20;99.90;;;;;;5083338;28;20032;-69
2023/07/07 04:12:47;;;;;;;6.25;5.57;;;15.30;99.90;;;;;;5078203;28;20028;-69
2023/07/07 04:15:12;;;;;;;8.43;6.07;;;15.20;99.90;;;;;;5083579;28;20077;-68
2023/07/07 04:17:38;;;;;;;7.70;6.28;;;15.10;99.90;;;;;;5091831;28;20063;-68
2023/07/07 04:20:05;;;;;;;7.60;5.82;;;15.20;99.90;;;;;;5087458;28;20487;-68
2023/07/07 04:22:31;;;;;;;10.02;5.70;;;15.10;99.90;;;;;;5086108;28;20029;-68
2023/07/07 04:25:16;;;;;;;7.00;6.00;;;15.20;99.90;;;;;;5079571;28;20099;-69
2023/07/07 04:27:43;;;;;;;8.57;6.13;;;15.20;99.90;;;;;;5086824;28;20020;-68
2023/07/07 04:30:09;;;;;;;6.30;4.95;;;15.20;99.90;;;;;;5085446;28;20020;-69
2023/07/07 04:32:36;;;;;;;7.13;5.03;;;15.20;99.90;;;;;;5080754;28;20012;-69
2023/07/07 04:35:03;;;;;;;6.35;5.30;;;15.20;99.90;;;;;;5082047;28;20081;-68
2023/07/07 04:37:29;;;;;;;7.55;6.00;;;15.20;99.90;;;;;;5082832;28;20031;-69
2023/07/07 04:39:55;;;;;;;9.20;5.22;;;15.20;99.90;;;;;;5077713;28;20032;-68
2023/07/07 04:42:21;;;;;;;5.55;4.75;;;15.10;99.90;;;;;;5084178;28;20484;-68
2023/07/07 04:44:46;;;;;;;5.40;4.90;;;15.10;99.90;;;;;;5080219;28;20096;-68
2023/07/07 04:47:12;;;;;;;6.07;4.30;;;15.20;99.90;;;;;;5080794;28;20425;-67
2023/07/07 04:49:38;;;;;;;6.47;5.35;;;15.20;99.90;;;;;;5079310;28;20699;-68
2023/07/07 04:52:04;;;;;;;5.72;4.57;;;15.20;99.90;;;;;;5085761;28;20643;-68
2023/07/07 04:54:30;;;;;;;5.43;4.45;;;15.20;99.90;;;;;;5088420;28;20020;-68
2023/07/07 04:56:56;;;;;;;5.30;4.80;;;15.10;99.90;;;;;;5085634;28;20032;-68
2023/07/07 04:59:21;;;;;;;5.97;5.00;;;15.10;99.90;;;;;;5083115;28;20031;-68
2023/07/07 05:01:47;;;;;;;5.90;5.03;;;15.10;99.90;;;;;;5075189;28;20492;-68
2023/07/07 05:04:13;;;;;;;8.60;5.32;;;15.20;99.90;;;;;;5088990;28;20027;-68
2023/07/07 05:06:39;;;;;;;8.82;5.75;;;15.30;99.90;;;;;;5081729;28;20036;-68
2023/07/07 05:09:07;;;;;;;9.45;5.10;;;15.30;99.90;;;;;;5082279;28;20385;-68
2023/07/07 05:11:34;;;;;;;5.70;4.75;;;15.40;99.90;;;;;;5082710;28;20023;-68
2023/07/07 05:14:00;;;;;;;5.15;4.63;;;15.40;99.90;;;;;;5080624;28;20531;-68
2023/07/07 05:16:30;;;;;;;5.80;4.57;;;15.30;99.90;;;;;;5083231;28;20048;-68
2023/07/07 05:18:56;;;;;;;6.63;5.00;;;15.40;99.90;;;;;;5080933;28;20046;-67
2023/07/07 05:21:24;;;;;;;6.72;4.57;;;15.40;99.90;;;;;;5082360;28;20028;-67
2023/07/07 05:23:53;;;;;;;6.88;5.30;;;15.50;99.90;;;;;;5089720;28;20012;-68
2023/07/07 05:26:23;;;;;;;7.63;4.60;;;15.60;99.90;;;;;;5084128;28;20082;-67
2023/07/07 05:28:51;;;;;;;5.80;3.88;;;15.60;99.90;;;;;;5079773;28;20024;-68
2023/07/07 05:31:17;;;;;;;5.35;4.50;;;15.60;99.90;;;;;;5076253;28;20033;-67
2023/07/07 05:33:42;;;;;;;5.40;4.60;;;15.70;99.90;;;;;;5077838;28;20016;-67
2023/07/07 05:36:08;;;;;;;8.68;5.57;;;15.70;99.90;;;;;;5083155;28;20043;-67
2023/07/07 05:38:35;;;;;;;9.93;5.85;;;15.70;99.90;;;;;;5086142;28;20099;-68
2023/07/07 05:41:01;;;;;;;6.95;4.57;;;15.70;99.90;;;;;;5086103;28;20094;-67
2023/07/07 05:43:27;;;;;;;6.50;5.28;;;15.70;99.90;;;;;;5081663;28;20025;-67
2023/07/07 05:46:01;;;;;;;4.63;4.20;;;15.80;99.90;;;;;;5074209;28;20123;-67
2023/07/07 05:48:28;;;;;;;8.70;5.38;;;15.80;99.90;;;;;;5080135;28;20437;-68
2023/07/07 05:50:57;;;;;;;5.63;4.30;;;15.80;99.90;;;;;;5078959;28;20161;-68
2023/07/07 05:53:23;;;;;;;10.07;5.47;;;15.90;99.90;;;;;;5090019;28;20523;-67
2023/07/07 05:55:49;;;;;;;8.82;5.38;;;15.90;99.90;;;;;;5079953;28;20111;-68
2023/07/07 05:58:16;;;;;;;8.20;5.57;;;15.90;99.90;;;;;;5081523;28;20028;-67
2023/07/07 06:00:42;;;;;;;5.82;4.90;;;16.00;99.90;;;;;;5083676;28;20032;-68
2023/07/07 06:03:08;;;;;;;7.78;4.88;;;16.00;99.90;;;;;;5082055;28;20066;-67
2023/07/07 06:05:34;;;;;;;5.75;4.70;;;16.10;99.90;;;;;;5088882;28;20025;-67
2023/07/07 06:08:00;;;;;;;10.32;5.38;;;16.10;99.90;;;;;;5086616;28;20102;-67
2023/07/07 06:10:26;;;;;;;10.27;5.65;;;16.20;99.90;;;;;;5089155;28;20030;-68
2023/07/07 06:12:53;;;;;;;7.75;5.07;;;16.20;99.90;;;;;;5086287;28;20030;-67
2023/07/07 06:15:19;;;;;;;7.13;5.00;;;16.30;99.90;;;;;;5089356;28;20040;-67
2023/07/07 06:17:45;;;;;;;8.30;5.82;;;16.30;99.90;;;;;;5086845;28;20059;-67
2023/07/07 06:20:12;;;;;;;10.25;5.45;;;16.30;99.90;;;;;;5082424;28;20484;-67
2023/07/07 06:22:37;;;;;;;11.95;6.15;;;16.40;99.90;;;;;;5086634;28;20029;-67
2023/07/07 06:25:04;;;;;;;10.00;6.18;;;16.50;99.90;;;;;;5088231;28;20107;-67
2023/07/07 06:27:30;;;;;;;10.80;5.28;;;16.60;99.90;;;;;;5085884;28;20472;-67
2023/07/07 06:29:56;;;;;;;12.23;5.93;;;16.70;99.90;;;;;;5082437;28;20050;-67
2023/07/07 06:32:22;;;;;;;5.50;4.93;;;16.70;99.90;;;;;;5083902;28;20054;-67
2023/07/07 06:34:47;;;;;;;7.45;5.35;;;16.80;99.90;;;;;;5084995;28;20460;-67
2023/07/07 06:37:13;;;;;;;7.70;5.35;;;16.90;99.90;;;;;;5086718;28;20093;-67
2023/07/07 06:39:39;;;;;;;11.95;5.07;;;16.90;99.90;;;;;;5082259;28;20024;-67
2023/07/07 06:42:05;;;;;;;8.30;5.13;;;17.10;99.90;;;;;;5085805;28;20043;-66
2023/07/07 06:44:32;;;;;;;6.80;4.40;;;17.20;99.90;;;;;;5080829;28;20803;-68
2023/07/07 06:46:58;;;;;;;7.97;4.45;;;17.20;99.90;;;;;;5084702;28;20056;-68
2023/07/07 06:49:24;;;;;;;9.85;4.28;;;17.30;99.90;;;;;;5083137;28;20027;-68
2023/07/07 06:51:50;;;;;;;9.45;4.43;;;17.50;99.90;;;;;;5088482;28;20020;-68
2023/07/07 06:54:15;;;;;;;6.13;3.95;;;17.70;99.90;;;;;;5087450;28;20499;-68
2023/07/07 06:56:41;;;;;;;7.03;3.65;;;17.90;99.90;;;;;;5087955;28;20028;-68
2023/07/07 06:59:08;;;;;;;8.48;3.53;;;18.20;99.90;;;;;;5082753;28;20045;-68
2023/07/07 07:01:34;;;;;;;6.32;3.55;;;18.30;99.90;;;;;;5079080;28;20365;-69
2023/07/07 07:04:01;;;;;;;7.90;4.00;;;18.70;99.90;;;;;;5084141;28;20412;-68
2023/07/07 07:06:28;;;;;;;8.93;3.78;;;18.90;99.90;;;;;;5080899;28;20035;-69
2023/07/07 07:08:53;;;;;;;8.00;3.60;;;19.10;99.90;;;;;;5081872;28;20369;-68
2023/07/07 07:11:19;;;;;;;4.22;3.40;;;19.50;99.90;;;;;;5086326;28;20029;-68
2023/07/07 07:13:45;;;;;;;7.50;3.67;;;19.60;99.90;;;;;;5084546;28;20014;-68
2023/07/07 07:16:11;;;;;;;7.03;3.45;;;19.80;99.90;;;;;;5084059;28;20078;-68
2023/07/07 07:18:37;;;;;;;5.97;3.20;;;19.80;99.90;;;;;;5080984;28;20028;-67
2023/07/07 07:21:02;;;;;;;7.97;4.13;;;19.90;99.90;;;;;;5078691;28;20090;-67
2023/07/07 07:23:28;;;;;;;5.07;3.00;;;20.20;99.90;;;;;;5077255;28;20491;-67
2023/07/07 07:25:54;;;;;;;6.32;3.50;;;20.30;99.90;;;;;;5089339;28;20038;-67
2023/07/07 07:28:19;;;;;;;10.10;3.50;;;20.50;99.90;;;;;;5079571;28;20595;-67
2023/07/07 07:30:45;;;;;;;5.97;3.50;;;20.50;99.90;;;;;;5088889;28;20455;-67
2023/07/07 07:33:18;;;;;;;5.72;3.40;;;20.80;99.90;;;;;;5079759;28;20532;-68
2023/07/07 07:35:44;;;;;;;4.65;2.80;;;20.90;99.90;;;;;;5082383;28;20017;-68
2023/07/07 07:38:10;;;;;;;5.93;3.10;;;21.00;99.90;;;;;;5085269;28;20035;-69
2023/07/07 07:40:35;;;;;;;9.52;3.53;;;21.10;99.90;;;;;;5081228;28;20507;-68
2023/07/07 07:43:01;;;;;;;6.00;2.58;;;21.30;99.90;;;;;;5082694;28;20024;-69
2023/07/07 07:45:27;;;;;;;6.47;3.13;;;21.40;99.90;;;;;;5082040;28;20088;-67
2023/07/07 07:47:53;;;;;;;7.78;2.85;;;21.60;99.90;;;;;;5080407;28;20032;-68
2023/07/07 07:50:20;;;;;;;7.18;2.78;;;21.70;99.90;;;;;;5083631;28;20553;-69
2023/07/07 07:52:46;;;;;;;6.05;2.70;;;21.80;99.90;;;;;;5081095;28;20020;-68
2023/07/07 07:55:14;;;;;;;8.25;2.90;;;21.80;99.90;;;;;;5079957;28;20469;-68
2023/07/07 07:57:40;;;;;;;6.72;2.85;;;22.00;99.90;;;;;;5084660;28;20114;-68
2023/07/07 08:00:06;;;;;;;5.13;2.65;;;22.10;99.90;;;;;;5075765;28;20033;-68
2023/07/07 08:02:32;;;;;;;4.70;2.75;;;22.30;99.90;;;;;;5079092;28;20036;-68
2023/07/07 08:04:58;;;;;;;9.48;3.25;;;22.30;99.90;;;;;;5079751;28;20024;-68
2023/07/07 08:07:25;;;;;;;5.32;2.92;;;22.40;99.90;;;;;;5077549;28;20021;-68
2023/07/07 08:09:51;;;;;;;4.15;2.35;;;22.60;99.90;;;;;;5081618;28;20089;-69
2023/07/07 08:12:16;;;;;;;6.88;2.85;;;22.80;99.90;;;;;;5079235;28;20024;-70
2023/07/07 08:14:42;;;;;;;7.50;3.53;;;22.90;99.90;;;;;;5072687;28;20977;-68
2023/07/07 08:17:11;;;;;;;10.05;3.13;;;23.10;99.90;;;;;;5070283;28;20025;-70
2023/07/07 08:19:38;;;;;;;5.65;2.65;;;23.30;99.90;;;;;;5092524;28;20024;-71
2023/07/07 08:22:07;;;;;;;4.78;2.60;;;23.30;99.90;;;;;;5098302;28;20032;-71
2023/07/07 08:24:39;;;;;;;6.95;2.63;;;23.40;99.90;;;;;;5101750;28;20023;-71
2023/07/07 08:27:05;;;;;;;7.10;2.83;;;23.50;99.90;;;;;;5103013;28;20033;-70
2023/07/07 08:29:31;;;;;;;4.82;2.88;;;23.50;99.90;;;;;;5097761;28;20030;-68
2023/07/07 08:31:57;;;;;;;5.20;2.60;;;23.60;99.90;;;;;;5096265;28;20024;-66
2023/07/07 08:34:23;;;;;;;9.82;3.88;;;23.70;99.90;;;;;;5101711;28;20027;-70
2023/07/07 08:36:48;;;;;;;6.70;4.30;;;23.80;99.90;;;;;;5097158;28;20024;-68
2023/07/07 08:39:19;;;;;;;6.60;3.25;;;24.00;99.90;;;;;;5099509;28;20049;-67
2023/07/07 08:41:50;;;;;;;20.15;7.50;;;24.30;99.90;;;;;;5098300;28;20549;-67
2023/07/07 08:44:20;;;;;;;6.53;2.78;;;24.40;99.90;;;;;;5095994;28;20035;-66
2023/07/07 08:47:13;;;;;;;9.98;4.65;;;24.60;99.90;;;;;;5102566;28;20019;-66
2023/07/07 08:49:45;;;;;;;5.60;2.78;;;24.70;99.90;;;;;;5096559;28;20031;-67
2023/07/07 08:52:32;;;;;;;4.22;2.22;;;24.90;99.90;;;;;;5097285;28;20046;-71
2023/07/07 08:54:58;;;;;;;4.68;2.50;;;25.20;99.90;;;;;;5098484;28;20016;-67
2023/07/07 08:57:28;;;;;;;3.92;2.35;;;25.30;99.90;;;;;;5100423;28;20034;-66
2023/07/07 09:00:17;;;;;;;4.68;2.30;;;25.40;99.90;;;;;;5095285;28;20024;-68
2023/07/07 09:03:02;;;;;;;5.03;2.15;;;25.50;99.90;;;;;;5098410;28;20126;-68
2023/07/07 09:05:50;;;;;;;5.70;2.20;;;25.60;99.90;;;;;;5095572;28;20466;-68
2023/07/07 09:08:28;;;;;;;6.13;2.45;;;25.70;99.90;;;;;;5098872;28;20042;-68
2023/07/07 09:11:06;;;;;;;2.45;2.05;;;25.90;99.90;;;;;;5094861;28;20031;-68
2023/07/07 09:13:35;;;;;;;5.80;2.22;;;26.00;99.90;;;;;;5086975;28;20027;-69
2023/07/07 09:16:18;;;;;;;3.53;2.17;;;26.20;99.90;;;;;;5093795;28;20518;-68
2023/07/07 09:19:04;;;;;;;;;;;26.30;99.90;;;;;;5096673;28;20142;-67
2023/07/07 09:21:53;;;;;;;7.43;2.75;;;26.50;99.90;;;;;;5095758;28;19916;-67
2023/07/07 09:25:03;;;;;;;4.70;1.80;;;26.50;99.90;;;;;;5093651;28;20073;-67
2023/07/07 09:27:37;;;;;;;3.25;2.60;;;26.80;99.90;;;;;;5068691;28;20069;-67
2023/07/07 09:30:20;;;;;;;4.72;2.55;;;26.90;99.90;;;;;;5095914;28;20023;-67
2023/07/07 09:32:46;;;;;;;5.95;2.70;;;27.00;99.90;;;;;;5089022;28;20042;-68
2023/07/07 09:35:14;;;;;;;5.00;2.25;;;27.00;99.50;;;;;;5092217;28;20032;-68
2023/07/07 09:37:55;;;;;;;3.85;2.38;;;27.10;99.50;;;;;;5086337;28;20476;-68
2023/07/07 09:40:33;;;;;;;5.30;2.40;;;27.20;97.80;;;;;;5096145;28;22662;-68
2023/07/07 09:43:32;;;;;;;6.22;2.40;;;27.30;97.50;;;;;;5087380;28;20032;-68
2023/07/07 09:46:25;;;;;;;3.22;2.08;;;27.60;99.10;;;;;;5095618;28;20028;-67
2023/07/07 09:49:01;;;;;;;3.75;2.40;;;27.60;99.90;;;;;;5098129;28;20472;-68
2023/07/07 09:51:48;;;;;;;20.98;3.28;;;27.80;99.90;;;;;;5103151;28;20371;-68
2023/07/07 09:54:16;;;;;;;44.10;4.60;;;27.80;98.20;;;;;;5098020;28;20514;-68
2023/07/07 09:56:55;;;;;;;3.53;2.05;;;27.90;99.20;;;;;;5097392;28;20015;-68
2023/07/07 09:59:38;;;;;;;6.97;2.65;;;27.90;99.50;;;;;;5098088;28;20030;-68
2023/07/07 10:02:13;;;;;;;3.95;2.45;;;27.90;97.30;;;;;;5095766;28;20035;-68
2023/07/07 10:04:42;;;;;;;3.65;2.45;;;28.10;97.80;;;;;;5095334;28;20043;-66
2023/07/07 10:07:11;;;;;;;7.78;2.55;;;28.20;97.50;;;;;;5087715;28;20076;-67
2023/07/07 10:09:36;;;;;;;3.67;2.67;;;28.40;96.00;;;;;;5092893;28;20107;-67
2023/07/07 10:12:02;;;;;;;4.45;2.50;;;28.40;97.20;;;;;;5089533;28;20110;-67
2023/07/07 10:14:30;;;;;;;4.78;2.55;;;28.40;95.10;;;;;;5091104;28;20410;-67
2023/07/07 10:17:08;;;;;;;6.05;2.50;;;28.50;97.30;;;;;;5092687;28;20035;-67
2023/07/07 10:19:41;;;;;;;4.10;2.55;;;28.60;97.00;;;;;;5094737;28;20042;-68
2023/07/07 10:22:10;;;;;;;5.47;2.42;;;28.70;95.50;;;;;;5095845;28;20036;-67
2023/07/07 10:24:36;;;;;;;3.42;2.50;;;28.90;96.60;;;;;;5098898;28;20066;-68
2023/07/07 10:27:02;;;;;;;6.25;2.70;;;28.90;96.00;;;;;;5097783;28;20408;-68
2023/07/07 10:29:37;;;;;;;4.60;2.95;;;28.90;96.00;;;;;;5096765;28;20047;-68
2023/07/07 10:32:03;;;;;;;3.55;2.60;;;29.00;94.70;;;;;;5084341;28;20482;-69
2023/07/07 10:34:33;;;;;;;5.40;2.90;;;29.10;94.00;;;;;;5098377;28;20487;-68
2023/07/07 10:36:59;;;;;;;2.72;2.50;;;29.10;94.70;;;;;;5101026;28;20024;-69
2023/07/07 10:39:30;;;;;;;3.55;2.40;;;29.00;92.20;;;;;;5100207;28;20024;-69
2023/07/07 10:41:56;;;;;;;3.88;2.75;;;29.20;93.90;;;;;;5091636;28;20040;-67
2023/07/07 10:44:27;;;;;;;4.03;2.58;;;29.10;94.20;;;;;;5098854;28;20099;-68
2023/07/07 10:46:53;;;;;;;4.13;3.22;;;29.10;93.80;;;;;;5101588;28;20019;-67
2023/07/07 10:49:24;;;;;;;3.63;2.65;;;29.10;92.00;;;;;;5097729;28;20384;-68
2023/07/07 10:52:09;;;;;;;6.63;3.00;;;29.10;93.10;;;;;;5101177;28;20425;-66
2023/07/07 10:54:56;;;;;;;5.07;4.47;;;29.00;90.90;;;;;;5102924;28;20028;-66
2023/07/07 10:57:51;;;;;;;5.22;4.28;;;29.20;91.10;;;;;;5102244;28;20072;-67
2023/07/07 11:00:35;;;;;;;6.03;3.53;;;29.20;91.50;;;;;;5098346;28;20040;-67
2023/07/07 11:03:38;;;;;;;3.90;2.90;;;29.40;90.30;;;;;;5100837;28;20027;-67
2023/07/07 11:06:23;;;;;;;;;;;29.50;88.50;;;;;;5087034;28;20066;-66
2023/07/07 11:09:01;;;;;;;3.85;2.97;;;29.50;91.50;;;;;;5097041;28;19907;-68
2023/07/07 11:11:44;;;;;;;4.53;3.05;;;29.40;90.30;;;;;;5102194;27;20023;-67
2023/07/07 11:14:18;;;;;;;5.55;2.90;;;29.50;91.20;;;;;;5099705;28;20487;-67
2023/07/07 11:16:51;;;;;;;5.80;3.10;;;29.50;90.00;;;;;;5100294;28;20039;-67
2023/07/07 11:20:09;;;;;;;4.38;3.10;;;29.50;88.10;;;;;;5096954;28;20020;-67
2023/07/07 11:22:37;;;;;;;4.55;3.20;;;29.60;89.40;;;;;;5058683;28;20770;-68
2023/07/07 11:25:24;;;;;;;4.22;3.10;;;29.60;90.10;;;;;;5099842;28;20024;-66
2023/07/07 11:28:08;;;;;;;4.95;3.22;;;29.40;87.10;;;;;;5103801;28;20027;-67
2023/07/07 11:31:04;;;;;;;4.25;3.35;;;29.70;90.20;;;;;;5096661;28;20043;-66
2023/07/07 11:33:45;;;;;;;5.82;3.38;;;29.70;86.90;;;;;;5102010;28;20023;-66
2023/07/07 11:36:33;;;;;;;5.80;3.53;;;29.90;89.80;;;;;;5100062;28;20032;-66
2023/07/07 11:39:32;;;;;;;3.85;3.33;;;29.90;84.50;;;;;;5090615;28;20020;-67
2023/07/07 11:42:18;;;;;;;9.85;3.90;;;30.00;85.50;;;;;;5099765;28;20035;-67
2023/07/07 11:45:08;;;;;;;4.75;3.83;;;30.00;85.80;;;;;;5096653;28;20020;-67
2023/07/07 11:47:42;;;;;;;6.20;3.70;;;30.20;84.00;;;;;;5101583;28;20499;-67
2023/07/07 11:50:20;;;;;;;4.28;3.65;;;30.40;87.10;;;;;;5095971;28;20027;-67
2023/07/07 11:53:04;;;;;;;5.30;3.25;;;30.00;84.70;;;;;;5099122;28;20030;-67
2023/07/07 11:55:46;;;;;;;6.03;3.83;;;29.90;85.20;;;;;;5093716;28;20084;-68
2023/07/07 11:58:39;;;;;;;4.78;3.80;;;29.80;83.70;;;;;;5096775;28;20032;-67
2023/07/07 12:01:14;;;;;;;9.68;3.88;;;30.00;81.90;;;;;;5092454;28;20055;-67
2023/07/07 12:04:19;;;;;;;6.22;4.05;;;30.30;88.20;;;;;;5094374;28;20032;-67
2023/07/07 12:07:00;;;;;;;4.35;3.65;;;30.50;83.00;;;;;;5098946;28;20032;-68
2023/07/07 12:09:42;;;;;;;5.45;4.18;;;30.60;81.90;;;;;;5096811;28;20026;-68
2023/07/07 12:12:25;;;;;;;4.72;4.20;;;30.60;83.00;;;;;;5090360;28;20031;-69
2023/07/07 12:15:02;;;;;;;5.00;4.03;;;30.40;82.30;;;;;;5095807;28;20069;-68
2023/07/07 12:17:36;;;;;;;6.88;4.22;;;30.70;81.00;;;;;;5090260;28;20474;-68
2023/07/07 12:20:16;;;;;;;5.85;4.40;;;30.70;82.10;;;;;;5097485;28;20040;-68
2023/07/07 12:22:43;;;;;;;8.07;5.13;;;30.80;82.10;;;;;;5096620;28;20027;-68
2023/07/07 12:25:12;;;;;;;6.22;4.72;;;30.70;78.80;;;;;;5092699;28;20021;-68
2023/07/07 12:27:51;;;;;;;7.57;4.65;;;30.60;77.90;;;;;;5092307;28;20028;-68
2023/07/07 12:30:42;;;;;;;5.63;4.68;;;30.50;75.00;;;;;;5091481;28;20383;-69
2023/07/07 12:33:09;;;;;;;6.13;4.90;;;30.60;81.50;;;;;;5096941;28;20039;-69
2023/07/07 12:35:56;;;;;;;4.68;4.22;;;30.60;77.40;;;;;;5098946;28;20023;-70
2023/07/07 12:38:26;;;;;;;5.18;4.57;;;30.70;80.80;;;;;;5090019;28;20143;-69
2023/07/07 12:41:14;;;;;;;4.78;4.15;;;30.90;77.80;;;;;;5096450;28;20031;-69
2023/07/07 12:44:03;;;;;;;4.75;4.32;;;31.00;81.90;;;;;;5097782;28;20084;-70
2023/07/07 12:46:33;;;;;;;7.47;4.30;;;30.80;75.90;;;;;;5087689;28;20027;-70
2023/07/07 12:49:21;;;;;;;6.70;4.22;;;30.70;78.40;;;;;;5095206;28;20369;-69
2023/07/07 12:51:58;;;;;;;4.95;4.30;;;30.80;79.90;;;;;;5091713;28;20088;-69
2023/07/07 12:54:35;;;;;;;6.40;5.00;;;31.00;77.00;;;;;;5096231;28;20031;-69
2023/07/07 12:57:02;;;;;;;7.70;5.53;;;31.00;71.10;;;;;;5096671;28;20439;-69
2023/07/07 12:59:39;;;;;;;5.80;5.25;;;31.10;75.50;;;;;;5093469;28;20808;-72
2023/07/07 13:02:23;;;;;;;6.32;4.93;;;31.20;71.30;;;;;;5092603;28;20491;-70
2023/07/07 13:04:54;;;;;;;9.23;4.93;;;31.40;75.40;;;;;;5098526;28;20019;-71
2023/07/07 13:07:32;;;;;;;4.75;4.20;;;31.40;75.80;;;;;;5100565;28;20066;-69
2023/07/07 13:09:58;;;;;;;6.47;4.63;;;31.40;76.80;;;;;;5089762;28;20660;-70